Terminal Aerodrome Forecast
Issued by NWS

Home | Current Version | Previous Version | Text Only | Print | Product List | Glossary Off
Versions: 1 2 3 4 5 6 7 8 9 10 11 12 13 14

000
FTUS45 KGGW 231733
TAFOLF
TAF
KOLF 231733Z 2318/2418 05013KT P6SM SCT015 OVC035
      TEMPO 2318/2320 BKN015
     FM240900 08004KT P6SM SCT018 BKN035=

USA.gov is the U.S. government's official web portal to all federal, state and local government web resources and services.